Time;durP1;ratioP1;P1;durP2;ratioP2;P2;SDS_P1;SDS_P2;PMS_P1;PMS_P2;Temp;Humidity;BMP_temperature;BMP_pressure;BME280_temperature;BME280_humidity;BME280_pressure;Samples;Min_cycle;Max_cycle;Signal;HPM_P1;HPM_P2
2021/03/23 00:00:53;;;;;;;5.78;1.98;;;;;;;-0.94;59.36;99477.58;1706573;84;21692;-71
2021/03/23 00:03:39;;;;;;;7.15;2.12;;;;;;;-0.96;59.67;99478.45;1690150;84;21153;-70
2021/03/23 00:06:08;;;;;;;5.00;1.90;;;;;;;-1.00;59.51;99484.47;1717953;80;21372;-62
2021/03/23 00:08:43;;;;;;;6.95;2.37;;;;;;;-1.08;59.84;99482.75;1781157;80;21137;-61
2021/03/23 00:11:16;;;;;;;3.92;1.60;;;;;;;-1.12;60.70;99484.91;1780897;80;21295;-61
2021/03/23 00:13:46;;;;;;;4.45;1.70;;;;;;;-1.17;61.68;99484.05;1762579;81;21226;-61
2021/03/23 00:16:15;;;;;;;3.58;1.70;;;;;;;-1.21;61.73;99490.06;1781005;80;21566;-62
2021/03/23 00:18:43;;;;;;;6.22;1.80;;;;;;;-1.28;61.51;99486.62;1780939;80;22173;-61
2021/03/23 00:21:13;;;;;;;5.62;1.92;;;;;;;-1.38;60.96;99485.30;1745982;77;21240;-71
2021/03/23 00:23:41;;;;;;;6.50;1.95;;;;;;;-1.46;61.60;99490.91;1695148;84;21170;-71
2021/03/23 00:26:09;;;;;;;4.83;1.62;;;;;;;-1.54;62.78;99487.00;1680711;83;21616;-69
2021/03/23 00:28:38;;;;;;;4.12;1.80;;;;;;;-1.63;61.89;99489.17;1694438;84;21386;-71
2021/03/23 00:31:07;;;;;;;4.43;1.60;;;;;;;-1.70;62.17;99487.44;1679129;85;22302;-71
2021/03/23 00:33:36;;;;;;;6.20;1.95;;;;;;;-1.77;62.27;99490.83;1722436;83;22975;-71
2021/03/23 00:36:07;;;;;;;5.40;2.12;;;;;;;-1.86;61.80;99488.23;1717912;78;21475;-62
2021/03/23 00:38:35;;;;;;;3.67;1.87;;;;;;;-1.94;61.73;99485.63;1685511;83;21153;-63
2021/03/23 00:41:02;;;;;;;6.22;2.02;;;;;;;-2.03;62.02;99485.60;1684604;85;21715;-62
2021/03/23 00:43:32;;;;;;;5.83;2.12;;;;;;;-2.10;62.61;99487.30;1684013;85;21343;-63
2021/03/23 00:46:00;;;;;;;6.47;2.27;;;;;;;-2.16;62.72;99489.87;1684137;85;21226;-62
2021/03/23 00:48:27;;;;;;;4.83;1.90;;;;;;;-2.22;62.91;99489.83;1684081;85;21166;-63
2021/03/23 00:50:55;;;;;;;4.17;1.72;;;;;;;-2.27;62.92;99496.70;1682205;81;21728;-71
2021/03/23 00:53:23;;;;;;;3.90;1.80;;;;;;;-2.36;63.73;99488.05;1650659;84;21211;-72
2021/03/23 00:55:51;;;;;;;4.95;1.80;;;;;;;-2.43;64.33;99488.88;1680429;83;21376;-71
2021/03/23 00:58:19;;;;;;;4.47;1.70;;;;;;;-2.49;64.85;99488.83;1668071;83;21262;-71
2021/03/23 01:00:46;;;;;;;7.78;2.52;;;;;;;-2.55;65.26;99491.40;1672821;84;21187;-71
2021/03/23 01:03:14;;;;;;;5.37;2.10;;;;;;;-2.62;65.04;99486.62;1693138;84;21174;-70
2021/03/23 01:05:43;;;;;;;5.75;2.50;;;;;;;-2.68;64.80;99493.03;1689938;81;21212;-62
2021/03/23 01:08:10;;;;;;;7.50;2.27;;;;;;;-2.75;64.70;99489.55;1700221;84;21394;-64
2021/03/23 01:10:38;;;;;;;4.65;2.00;;;;;;;-2.83;65.49;99486.07;1711316;83;21187;-64
2021/03/23 01:13:06;;;;;;;7.83;2.52;;;;;;;-2.89;65.65;99484.73;1687193;85;21595;-64
2021/03/23 01:15:34;;;;;;;5.50;2.40;;;;;;;-2.95;65.72;99482.95;1677084;85;21165;-63
2021/03/23 01:18:01;;;;;;;6.08;2.58;;;;;;;-3.02;65.89;99485.05;1713052;82;21414;-63
2021/03/23 01:20:32;;;;;;;5.65;2.45;;;;;;;-3.09;65.98;99481.14;1744287;82;21178;-62
2021/03/23 01:23:19;;;;;;;4.57;1.90;;;;;;;-3.13;66.27;99488.41;1678945;83;21179;-72
2021/03/23 01:25:47;;;;;;;9.75;2.65;;;;;;;-3.20;67.09;99484.52;1686861;85;21176;-71
2021/03/23 01:28:15;;;;;;;5.83;2.60;;;;;;;-3.23;67.09;99481.89;1677150;85;21711;-71
2021/03/23 01:30:44;;;;;;;4.50;2.10;;;;;;;-3.27;67.10;99494.73;1686792;85;21164;-72
2021/03/23 01:33:12;;;;;;;5.72;2.33;;;;;;;-3.31;67.43;99495.15;1685649;85;22279;-72
2021/03/23 01:35:51;;;;;;;4.93;2.13;;;;;;;-3.36;67.69;99495.50;1685564;85;21160;-71
2021/03/23 01:38:20;;;;;;;6.87;2.67;;;;;;;-3.40;67.82;99492.48;1693214;84;21661;-64
2021/03/23 01:40:48;;;;;;;4.13;2.20;;;;;;;-3.45;68.12;99496.71;1667659;86;21155;-65
2021/03/23 01:43:25;;;;;;;4.22;2.22;;;;;;;-3.49;68.79;99494.98;1696798;84;21222;-64
2021/03/23 01:45:55;;;;;;;8.33;2.70;;;;;;;-3.54;68.73;99488.50;1667545;84;21222;-64
2021/03/23 01:48:30;;;;;;;8.53;2.87;;;;;;;-3.58;69.13;99488.03;1688745;84;21206;-65
2021/03/23 01:51:02;;;;;;;7.87;3.03;;;;;;;-3.62;68.91;99488.41;1695712;80;21231;-67
2021/03/23 01:53:42;;;;;;;7.40;2.77;;;;;;;-3.64;69.38;99482.81;1658582;84;21238;-68
2021/03/23 01:56:10;;;;;;;7.57;3.00;;;;;;;-3.68;69.29;99489.66;1648072;86;21210;-68
2021/03/23 01:58:45;;;;;;;7.93;2.60;;;;;;;-3.69;69.29;99490.48;1635405;86;22350;-69
2021/03/23 02:01:15;;;;;;;6.63;2.90;;;;;;;-3.73;69.28;99493.86;1662427;86;21132;-67
2021/03/23 02:03:44;;;;;;;10.25;2.75;;;;;;;-3.75;69.43;99489.16;1662474;86;21248;-69
2021/03/23 02:06:35;;;;;;;9.03;2.47;;;;;;;-3.77;69.68;99497.28;1669719;79;21182;-63
2021/03/23 02:09:06;;;;;;;9.00;2.58;;;;;;;-3.79;69.96;99492.54;1704598;84;21206;-64
2021/03/23 02:11:36;;;;;;;4.70;2.40;;;;;;;-3.82;69.95;99496.34;1715716;83;22070;-63
2021/03/23 02:14:04;;;;;;;6.92;2.98;;;;;;;-3.86;69.63;99495.89;1704134;84;21855;-63
2021/03/23 02:16:33;;;;;;;6.73;2.80;;;;;;;-3.91;69.96;99488.52;1727484;82;21186;-64
2021/03/23 02:19:03;;;;;;;5.70;2.97;;;;;;;-3.91;70.07;99498.81;1745515;82;21138;-63
2021/03/23 02:21:31;;;;;;;8.33;3.13;;;;;;;-3.94;70.22;99499.64;1738572;79;21137;-68
2021/03/23 02:24:01;;;;;;;8.03;2.93;;;;;;;-3.94;70.26;99504.79;1701088;84;21399;-68
2021/03/23 02:26:32;;;;;;;8.30;3.20;;;;;;;-3.96;70.74;99501.77;1704618;84;21174;-70
2021/03/23 02:29:10;;;;;;;8.70;3.03;;;;;;;-3.96;70.64;99506.91;1704168;84;21133;-71
2021/03/23 02:31:50;;;;;;;8.47;3.47;;;;;;;-3.99;70.58;99496.59;1705043;83;21202;-69
2021/03/23 02:34:21;;;;;;;8.20;3.05;;;;;;;-4.03;70.55;99498.25;1729370;82;21177;-68
2021/03/23 02:36:50;;;;;;;9.58;3.08;;;;;;;-4.03;70.89;99496.54;1726484;79;21186;-64
2021/03/23 02:39:22;;;;;;;9.23;3.10;;;;;;;-4.05;71.03;99496.97;1687819;85;22180;-64
2021/03/23 02:41:50;;;;;;;10.10;3.23;;;;;;;-4.04;71.30;99501.26;1687414;85;21166;-66
2021/03/23 02:44:29;;;;;;;8.63;3.03;;;;;;;-4.05;71.46;99495.69;1684850;85;21256;-65
2021/03/23 02:46:58;;;;;;;11.30;3.43;;;;;;;-4.04;71.41;99506.41;1684767;84;21181;-63
2021/03/23 02:49:27;;;;;;;8.40;3.27;;;;;;;-4.05;71.69;99493.11;1684377;83;21410;-64
2021/03/23 02:51:55;;;;;;;7.40;2.80;;;;;;;-4.06;71.74;99497.80;1683312;83;21192;-72
2021/03/23 02:54:23;;;;;;;8.37;3.20;;;;;;;-4.06;71.46;99490.09;1690375;83;21688;-70
2021/03/23 02:56:51;;;;;;;5.70;2.97;;;;;;;-4.09;71.33;99490.06;1690019;84;21212;-70
2021/03/23 02:59:19;;;;;;;5.90;2.70;;;;;;;-4.10;71.46;99492.60;1690157;84;21181;-71
2021/03/23 03:01:48;;;;;;;8.27;2.87;;;;;;;-4.10;71.74;99491.31;1688931;84;21385;-70
2021/03/23 03:04:16;;;;;;;5.57;2.50;;;;;;;-4.10;71.92;99501.17;1688577;84;21196;-70
2021/03/23 03:06:46;;;;;;;9.53;3.67;;;;;;;-4.10;72.37;99494.74;1683983;83;21191;-62
2021/03/23 03:09:15;;;;;;;6.07;2.73;;;;;;;-4.05;72.62;99498.26;1669024;85;21199;-62
2021/03/23 03:11:43;;;;;;;13.17;3.47;;;;;;;-4.02;72.67;99499.57;1669081;85;21223;-61
2021/03/23 03:14:12;;;;;;;9.47;3.13;;;;;;;-4.02;72.35;99498.28;1668835;84;21264;-63
2021/03/23 03:16:40;;;;;;;8.67;3.50;;;;;;;-3.99;72.10;99500.45;1665782;86;21183;-62
2021/03/23 03:19:09;;;;;;;11.30;3.50;;;;;;;-3.98;71.86;99500.88;1668090;84;21157;-62
2021/03/23 03:21:37;;;;;;;9.93;3.67;;;;;;;-3.98;72.12;99499.59;1678765;80;21211;-68
2021/03/23 03:24:07;;;;;;;10.93;3.03;;;;;;;-3.95;71.89;99504.80;1734728;81;21174;-70
2021/03/23 03:26:35;;;;;;;6.58;3.08;;;;;;;-3.95;72.10;99498.36;1762107;81;21209;-70
2021/03/23 03:29:03;;;;;;;8.50;2.80;;;;;;;-3.95;71.97;99497.08;1749451;81;21185;-70
2021/03/23 03:31:33;;;;;;;7.87;3.67;;;;;;;-3.96;72.00;99494.05;1734769;81;21194;-71
2021/03/23 03:34:02;;;;;;;14.00;3.83;;;;;;;-3.97;72.14;99498.34;1756319;81;21179;-68
2021/03/23 03:36:31;;;;;;;8.27;3.13;;;;;;;-3.99;71.79;99499.17;1751246;80;21183;-62
2021/03/23 03:39:01;;;;;;;7.17;2.85;;;;;;;-4.03;72.06;99492.68;1652908;86;22193;-62
2021/03/23 03:41:29;;;;;;;7.00;2.90;;;;;;;-4.04;72.40;99501.26;1651644;86;21371;-61
2021/03/23 03:43:58;;;;;;;7.70;3.13;;;;;;;-4.05;72.80;99500.83;1643763;86;21220;-62
2021/03/23 03:46:26;;;;;;;6.50;3.10;;;;;;;-4.08;72.88;99496.92;1624224;87;21213;-63
2021/03/23 03:48:56;;;;;;;11.00;3.50;;;;;;;-4.09;72.80;99500.34;1624144;86;21273;-62
2021/03/23 03:51:28;;;;;;;8.77;3.60;;;;;;;-4.12;72.91;99497.72;1644024;83;21277;31
2021/03/23 03:53:57;;;;;;;9.53;3.27;;;;;;;-4.12;72.62;99505.43;1747117;80;21197;-70
2021/03/23 03:56:24;;;;;;;13.43;3.83;;;;;;;-4.15;72.69;99502.84;1741200;81;21174;-70
2021/03/23 03:58:53;;;;;;;7.60;3.23;;;;;;;-4.16;72.67;99511.41;1718240;83;21661;-70
2021/03/23 04:01:22;;;;;;;8.27;3.50;;;;;;;-4.16;72.63;99513.09;1742589;81;21128;-69
2021/03/23 04:03:52;;;;;;;10.73;3.33;;;;;;;-4.17;72.84;99514.80;1767317;81;21667;-70
2021/03/23 04:06:31;;;;;;;4.25;2.67;;;;;;;-4.18;72.63;99513.09;1766849;81;21487;-70
2021/03/23 04:08:59;;;;;;;8.53;3.70;;;;;;;-4.18;72.67;99513.09;1667183;86;21173;-65
2021/03/23 04:11:27;;;;;;;5.57;2.80;;;;;;;-4.19;72.88;99511.35;1634919;87;21196;-64
2021/03/23 04:13:59;;;;;;;7.00;2.75;;;;;;;-4.20;72.69;99516.06;1639254;87;21245;-63
2021/03/23 04:16:28;;;;;;;8.37;3.30;;;;;;;-4.19;72.74;99519.06;1607769;89;22251;-63
2021/03/23 04:18:56;;;;;;;8.57;3.03;;;;;;;-4.17;72.90;99522.52;1639004;87;21602;-64
2021/03/23 04:21:35;;;;;;;10.90;3.37;;;;;;;-4.15;72.87;99522.55;1649206;86;21229;-64
2021/03/23 04:24:04;;;;;;;8.10;3.27;;;;;;;-4.16;73.17;99519.13;1645694;87;21208;-72
2021/03/23 04:26:32;;;;;;;8.30;3.20;;;;;;;-4.12;73.03;99524.72;1646905;87;21177;-73
2021/03/23 04:29:00;;;;;;;9.27;3.30;;;;;;;-4.12;72.81;99523.44;1646114;87;21799;-70
2021/03/23 04:31:38;;;;;;;7.63;3.63;;;;;;;-4.07;72.92;99523.48;1603107;88;21288;-73
2021/03/23 04:34:07;;;;;;;7.47;3.23;;;;;;;-3.87;72.98;99522.45;1632619;87;21238;-73
2021/03/23 04:36:41;;;;;;;13.60;3.80;;;;;;;-3.22;72.52;99519.69;1633305;86;21740;-73
2021/03/23 04:39:11;;;;;;;8.43;3.40;;;;;;;-2.39;71.69;99528.45;1667216;84;21182;-62
2021/03/23 04:41:40;;;;;;;10.13;3.98;;;;;;;-1.60;69.79;99521.44;1671906;84;21412;-63
2021/03/23 04:44:08;;;;;;;13.30;3.45;;;;;;;-0.85;67.16;99524.10;1650612;84;21304;-63
2021/03/23 04:46:36;;;;;;;10.03;4.05;;;;;;;-0.16;65.98;99525.70;1666459;85;21193;-63
2021/03/23 04:49:04;;;;;;;14.55;3.60;;;;;;;0.53;63.41;99524.09;1670281;85;21612;-63
2021/03/23 04:51:43;;;;;;;7.10;3.80;;;;;;;1.14;61.39;99527.09;1670542;84;21564;-65
2021/03/23 04:54:11;;;;;;;11.33;4.12;;;;;;;1.74;60.80;99518.73;1674657;85;22652;-69
2021/03/23 04:56:41;;;;;;;7.70;3.83;;;;;;;2.37;57.34;99523.16;1617469;87;21778;-70
2021/03/23 04:59:09;;;;;;;6.87;3.62;;;;;;;2.93;54.30;99521.48;1608020;88;21219;-69
2021/03/23 05:01:39;;;;;;;9.20;3.25;;;;;;;3.21;54.44;99519.30;1615286;88;21502;-70
2021/03/23 05:04:16;;;;;;;6.72;3.17;;;;;;;3.31;52.68;99520.87;1595261;89;21198;-70
2021/03/23 05:06:48;;;;;;;10.72;3.85;;;;;;;3.67;51.29;99524.13;1647734;84;21328;-70
2021/03/23 05:09:15;;;;;;;7.70;3.70;;;;;;;4.08;49.46;99525.09;1633863;84;21226;-65
2021/03/23 05:11:44;;;;;;;8.13;3.90;;;;;;;4.46;49.71;99526.02;1655977;85;21218;-64
2021/03/23 05:14:12;;;;;;;8.38;3.47;;;;;;;4.91;46.84;99522.81;1684024;85;21207;-66
2021/03/23 05:16:41;;;;;;;8.53;3.87;;;;;;;5.24;46.82;99515.94;1684300;85;22160;-67
2021/03/23 05:19:10;;;;;;;10.45;4.00;;;;;;;5.65;45.78;99521.81;1709511;83;21403;-67
2021/03/23 05:21:54;;;;;;;10.70;3.72;;;;;;;6.08;45.25;99519.38;1959042;71;28753;-70
2021/03/23 05:24:22;;;;;;;7.10;3.25;;;;;;;6.27;46.01;99521.45;1770720;80;21664;-69
2021/03/23 05:26:50;;;;;;;9.10;3.20;;;;;;;6.58;43.87;99526.65;1782485;80;21602;-73
2021/03/23 05:29:19;;;;;;;12.93;3.75;;;;;;;6.98;42.78;99528.02;1794068;79;21701;-76
2021/03/23 05:31:47;;;;;;;7.15;2.92;;;;;;;7.32;41.55;99518.61;1802581;78;21174;-73
2021/03/23 05:34:15;;;;;;;11.20;3.55;;;;;;;7.77;40.40;99528.40;1800017;79;21185;-73
2021/03/23 05:37:03;;;;;;;6.12;3.05;;;;;;;8.09;39.89;99523.78;1796091;79;21175;-73
2021/03/23 05:39:31;;;;;;;6.83;2.87;;;;;;;8.50;38.20;99529.75;1795652;79;21367;-67
2021/03/23 05:42:11;;;;;;;7.25;3.45;;;;;;;8.71;36.59;99528.06;1786900;80;21217;-68
2021/03/23 05:44:53;;;;;;;10.60;3.42;;;;;;;8.69;36.19;99531.20;1778440;80;21594;-68
2021/03/23 05:47:29;;;;;;;5.55;3.37;;;;;;;8.75;36.46;99530.52;1764461;78;21188;-67
2021/03/23 05:50:19;;;;;;;11.93;3.27;;;;;;;9.00;35.19;99534.34;1775395;79;21712;-71
2021/03/23 05:53:08;;;;;;;6.83;3.20;;;;;;;9.17;37.51;99536.74;1760268;77;21211;-74
2021/03/23 05:55:42;;;;;;;7.60;3.00;;;;;;;9.69;36.19;99534.57;1798905;78;21553;-72
2021/03/23 05:58:21;;;;;;;5.25;2.75;;;;;;;10.16;33.18;99527.67;1799871;78;21153;-72
2021/03/23 06:00:56;;;;;;;5.83;2.62;;;;;;;10.33;33.21;99531.34;1802718;78;21665;-75
2021/03/23 06:03:41;;;;;;;4.87;2.47;;;;;;;10.42;32.47;99534.44;1797395;78;21181;-70
2021/03/23 06:06:46;;;;;;;21.82;3.05;;;;;;;10.44;32.33;99530.40;1801314;79;21377;-72
2021/03/23 06:09:15;;;;;;;5.62;2.45;;;;;;;10.49;33.25;99535.02;1738215;76;22372;-67
2021/03/23 06:11:52;;;;;;;6.75;2.00;;;;;;;10.71;31.16;99539.65;1758546;79;21200;-67
2021/03/23 06:14:46;;;;;;;10.23;2.35;;;;;;;10.73;32.64;99532.16;1770951;79;21650;-67
2021/03/23 06:17:35;;;;;;;5.85;1.65;;;;;;;10.63;31.04;99536.53;1766639;79;21136;-68
2021/03/23 06:20:41;;;;;;;5.58;2.25;;;;;;;10.58;34.47;99544.23;1740204;79;21227;-68
2021/03/23 06:23:41;;;;;;;21.23;3.27;;;;;;;11.00;33.07;99545.33;1782004;77;21230;-73
2021/03/23 06:29:00;;;;;;;6.45;2.40;;;;;;;11.24;31.39;99546.38;1808201;79;22748;-75
2021/03/23 06:31:47;;;;;;;5.20;2.40;;;;;;;11.58;31.46;99547.34;1775862;80;21227;-73
2021/03/23 06:34:22;;;;;;;15.60;2.50;;;;;;;12.12;31.28;99542.81;1762493;80;22690;-76
2021/03/23 06:36:50;;;;;;;9.63;2.00;;;;;;;12.65;31.00;99545.67;1697092;83;21223;-79
2021/03/23 06:39:19;;;;;;;5.25;2.15;;;;;;;12.98;29.33;99551.36;1676320;80;21214;-70
2021/03/23 06:42:00;;;;;;;5.92;1.85;;;;;;;12.96;28.09;99549.27;1660780;85;21206;-69
2021/03/23 06:44:38;;;;;;;4.25;1.90;;;;;;;13.10;26.79;99555.95;1645972;86;21179;-70
2021/03/23 06:47:06;;;;;;;7.35;2.10;;;;;;;13.34;26.42;99552.87;1645632;86;21638;-69
2021/03/23 06:49:37;;;;;;;6.22;1.85;;;;;;;13.12;26.62;99556.72;1657676;85;21642;-71
2021/03/23 06:52:21;;;;;;;4.90;1.57;;;;;;;13.28;27.08;99548.80;1661371;84;21205;-69
2021/03/23 06:55:20;;;;;;;3.52;1.50;;;;;;;13.29;26.49;99552.28;1615927;87;21226;-75
2021/03/23 06:57:48;;;;;;;5.85;1.85;;;;;;;13.20;26.14;99549.22;1639761;85;21806;-75
2021/03/23 07:00:32;;;;;;;9.03;1.55;;;;;;;13.29;25.41;99554.93;1654667;86;22652;-76
2021/03/23 07:03:24;;;;;;;9.53;1.80;;;;;;;13.38;25.94;99552.60;1664871;84;21235;-72
2021/03/23 07:05:54;;;;;;;3.25;1.50;;;;;;;13.51;24.31;99549.27;1670661;84;21216;-74
2021/03/23 07:08:25;;;;;;;2.27;1.27;;;;;;;13.62;24.77;99541.08;1721931;78;21638;-70
2021/03/23 07:11:02;;;;;;;9.95;1.87;;;;;;;13.81;25.49;99545.28;1782293;79;21159;-69
2021/03/23 07:13:34;;;;;;;24.70;2.90;;;;;;;13.97;24.91;99541.24;1752403;80;21384;-70
2021/03/23 07:16:14;;;;;;;6.95;2.22;;;;;;;14.19;23.79;99538.13;1765983;79;21134;-71
2021/03/23 07:18:47;;;;;;;6.47;1.70;;;;;;;14.18;23.47;99534.63;1779495;80;21182;-70
2021/03/23 07:21:28;;;;;;;3.52;1.47;;;;;;;14.08;24.19;99532.62;1780531;79;28706;-71
2021/03/23 07:24:11;;;;;;;2.12;1.17;;;;;;;14.35;22.78;99535.38;1763136;78;21202;-71
2021/03/23 07:26:58;;;;;;;6.12;1.27;;;;;;;14.58;21.44;99526.02;1758933;81;21321;-72
2021/03/23 07:29:36;;;;;;;7.30;2.40;;;;;;;14.65;21.77;99535.28;1731467;82;21225;-72
2021/03/23 07:32:18;;;;;;;3.50;1.17;;;;;;;14.87;21.19;99531.65;1731534;82;21198;-72
2021/03/23 07:35:24;;;;;;;23.95;12.78;;;;;;;14.56;22.51;99540.72;1757997;80;21201;-72
2021/03/23 07:38:16;;;;;;;3.40;1.10;;;;;;;14.58;20.89;99536.63;1740229;80;21702;-70
2021/03/23 07:40:47;;;;;;;2.33;0.88;;;;;;;13.96;19.51;99534.23;1607277;88;21405;-70
2021/03/23 07:43:38;;;;;;;4.33;1.57;;;;;;;13.95;20.69;99536.03;1593354;88;21710;-70
2021/03/23 07:46:26;;;;;;;6.37;1.15;;;;;;;13.89;19.79;99539.03;1647471;85;21237;-70
2021/03/23 07:49:07;;;;;;;9.25;1.02;;;;;;;14.20;21.61;99531.90;1639073;86;21213;-73
2021/03/23 07:51:42;;;;;;;8.75;3.42;;;;;;;13.56;20.72;99539.27;1650883;86;21175;-72
2021/03/23 07:54:29;;;;;;;9.10;1.17;;;;;;;12.77;20.00;99543.69;1690819;81;21451;-75
2021/03/23 07:57:18;;;;;;;8.88;1.10;;;;;;;12.69;21.36;99547.21;1659007;85;21223;-74
2021/03/23 08:00:33;;;;;;;3.50;1.00;;;;;;;13.00;21.12;99532.31;1666936;85;21225;-73
2021/03/23 08:03:31;;;;;;;7.17;1.32;;;;;;;13.22;22.83;99528.80;1667080;85;21213;-74
2021/03/23 08:06:11;;;;;;;3.98;0.70;;;;;;;13.52;23.04;99527.15;1663910;85;21686;-74
2021/03/23 08:09:05;;;;;;;2.42;0.80;;;;;;;12.86;21.03;99534.41;1645686;79;22643;-70
2021/03/23 08:12:11;;;;;;;4.80;0.98;;;;;;;11.83;21.43;99534.61;1628924;86;21224;-70
2021/03/23 08:15:13;;;;;;;3.45;1.27;;;;;;;10.98;24.39;99531.38;1628363;88;21224;-70
2021/03/23 08:17:56;;;;;;;6.50;1.20;;;;;;;10.48;26.33;99533.29;1661024;86;21178;-70
2021/03/23 08:21:07;;;;;;;4.75;0.90;;;;;;;10.66;23.90;99528.48;1628846;87;21226;-70
2021/03/23 08:24:11;;;;;;;3.33;0.90;;;;;;;11.02;24.08;99522.40;1657971;81;22107;-74
2021/03/23 08:27:05;;;;;;;1.80;0.93;;;;;;;10.82;28.93;99519.40;1674663;85;21666;-74
2021/03/23 08:29:54;;;;;;;12.07;1.22;;;;;;;10.28;25.48;99521.00;1685139;85;21227;-75
2021/03/23 08:32:55;;;;;;;4.53;0.90;;;;;;;10.24;24.05;99513.72;1677921;85;21374;-75
2021/03/23 08:36:11;;;;;;;9.68;1.10;;;;;;;9.85;25.27;99526.41;1634571;85;21199;-75
2021/03/23 08:39:17;;;;;;;3.72;1.27;;;;;;;9.58;27.37;99523.66;1648725;78;21366;-71
2021/03/23 08:41:56;;;;;;;3.58;1.25;;;;;;;9.50;24.86;99529.69;1699316;82;21191;-70
2021/03/23 08:44:56;;;;;;;4.95;1.17;;;;;;;10.09;24.70;99523.14;1677213;84;21175;-70
2021/03/23 08:47:33;;;;;;;43.78;4.05;;;;;;;10.63;25.87;99524.69;1697752;84;21697;-71
2021/03/23 08:50:26;;;;;;;2.27;1.00;;;;;;;10.51;27.98;99529.19;1697571;84;21218;-70
2021/03/23 08:52:57;;;;;;;11.28;1.47;;;;;;;10.09;23.95;99526.24;1699967;79;21253;-75
2021/03/23 08:55:31;;;;;;;3.83;1.80;;;;;;;9.65;25.12;99525.10;1604207;88;21807;-71
2021/03/23 08:58:07;;;;;;;8.65;1.27;;;;;;;9.86;25.09;99532.05;1620030;88;21246;-74
2021/03/23 09:00:41;;;;;;;6.45;1.10;;;;;;;10.44;28.46;99528.61;1617364;86;21198;-72
2021/03/23 09:03:15;;;;;;;1.55;0.95;;;;;;;10.93;23.56;99516.26;1606019;88;21233;-72
2021/03/23 09:05:59;;;;;;;3.37;1.02;;;;;;;10.71;26.61;99529.58;1620310;88;21289;-73
2021/03/23 09:08:47;;;;;;;2.87;0.95;;;;;;;10.08;25.60;99520.13;1643885;79;21219;-69
2021/03/23 09:11:55;;;;;;;2.95;1.10;;;;;;;9.30;25.54;99525.28;1714967;79;21191;-67
2021/03/23 09:14:23;;;;;;;4.00;1.12;;;;;;;8.79;25.48;99524.70;1759112;79;21635;-69
2021/03/23 09:17:02;;;;;;;7.42;1.10;;;;;;;9.00;26.58;99522.52;1748841;79;21139;-67
2021/03/23 09:19:50;;;;;;;3.42;1.52;;;;;;;9.23;28.25;99512.86;1670521;84;21938;-65
2021/03/23 09:22:27;;;;;;;5.90;1.90;;;;;;;9.32;26.18;99504.59;1716674;81;21198;-68
2021/03/23 09:25:38;;;;;;;3.45;0.80;;;;;;;8.97;26.00;99542.35;1619834;81;21255;-71
2021/03/23 09:28:07;;;;;;;1.77;0.68;;;;;;;8.19;30.86;99530.41;1607600;88;21223;-69
2021/03/23 09:30:50;;;;;;;3.20;1.07;;;;;;;7.30;29.59;99524.34;1586289;88;21210;-71
2021/03/23 09:33:32;;;;;;;2.72;1.45;;;;;;;6.89;29.85;99519.99;1593209;88;21418;-66
2021/03/23 09:36:14;;;;;;;5.53;2.30;;;;;;;6.63;30.13;99523.89;1614140;87;21244;-69
2021/03/23 09:38:47;;;;;;;12.15;6.47;;;;;;;6.64;29.59;99509.89;1621761;82;21198;-75
2021/03/23 09:41:32;;;;;;;6.30;2.15;;;;;;;6.94;28.27;99510.23;1660493;85;21230;-75
2021/03/23 09:44:09;;;;;;;4.22;1.20;;;;;;;7.51;27.41;99494.41;1666623;84;21222;-74
2021/03/23 09:46:47;;;;;;;2.25;1.20;;;;;;;8.38;26.68;99495.16;1666451;85;22256;-74
2021/03/23 09:49:44;;;;;;;3.27;1.27;;;;;;;8.67;26.25;99480.06;1641056;85;21243;-75
2021/03/23 09:52:18;;;;;;;3.75;1.37;;;;;;;8.49;28.60;99493.48;1669105;85;21222;-76
2021/03/23 09:54:58;;;;;;;6.20;1.70;;;;;;;7.95;27.57;99494.59;1667614;81;21292;-68
2021/03/23 09:57:31;;;;;;;5.33;1.27;;;;;;;7.52;33.13;99496.98;1630353;87;21243;-69
2021/03/23 10:00:01;;;;;;;5.58;1.20;;;;;;;7.14;28.59;99494.34;1611175;87;22334;-69
2021/03/23 10:02:35;;;;;;;3.02;1.40;;;;;;;6.83;29.57;99501.89;1644493;87;21735;-67
2021/03/23 10:05:20;;;;;;;6.25;1.40;;;;;;;6.38;29.49;99506.77;1644647;85;21826;-67
2021/03/23 10:07:51;;;;;;;2.20;0.98;;;;;;;6.06;30.73;99500.26;1642463;87;21245;-68
2021/03/23 10:10:33;;;;;;;3.70;1.05;;;;;;;6.28;31.45;99508.77;1682727;82;21671;-72
2021/03/23 10:13:27;;;;;;;2.25;1.20;;;;;;;6.32;30.87;99503.02;1673241;84;21228;-69
2021/03/23 10:15:56;;;;;;;1.80;0.90;;;;;;;6.34;30.56;99498.14;1677167;84;21168;-69
2021/03/23 10:18:28;;;;;;;6.40;1.20;;;;;;;6.17;30.77;99495.19;1676469;85;21510;-69
2021/03/23 10:21:08;;;;;;;12.35;1.72;;;;;;;5.79;33.22;99519.29;1676340;85;21195;-68
2021/03/23 10:23:51;;;;;;;6.47;1.30;;;;;;;5.32;31.03;99530.55;1688458;80;21677;-70
2021/03/23 10:26:19;;;;;;;9.65;2.60;;;;;;;4.75;35.39;99543.18;1744812;80;21378;-69
2021/03/23 10:28:48;;;;;;;14.53;5.95;;;;;;;4.14;36.36;99537.97;1744519;82;21158;-71
2021/03/23 10:31:38;;;;;;;22.25;9.78;;;;;;;3.80;37.17;99530.84;1743877;82;21174;-70
2021/03/23 10:34:15;;;;;;;27.77;9.83;;;;;;;3.58;37.59;99532.52;1735244;82;21174;-69
2021/03/23 10:36:47;;;;;;;10.80;4.50;;;;;;;3.45;38.17;99528.86;1744700;82;21126;-69
2021/03/23 10:39:46;;;;;;;13.43;6.50;;;;;;;3.40;39.18;99535.44;1734803;79;21380;-73
2021/03/23 10:42:27;;;;;;;33.38;16.65;;;;;;;3.42;39.67;99532.83;1717716;83;21239;-73
2021/03/23 10:45:34;;;;;;;16.37;5.53;;;;;;;3.61;39.31;99535.95;1717231;83;21283;-74
2021/03/23 10:48:09;;;;;;;17.17;7.80;;;;;;;3.65;39.47;99522.00;1720931;81;21179;-74
2021/03/23 10:50:39;;;;;;;11.85;5.70;;;;;;;3.41;39.87;99521.56;1718767;83;21524;-73
2021/03/23 10:53:31;;;;;;;22.98;7.53;;;;;;;3.42;42.51;99516.76;1721260;83;21376;-75
2021/03/23 10:55:59;;;;;;;12.35;5.10;;;;;;;3.92;38.45;99535.80;1669458;83;21903;-69
2021/03/23 10:58:38;;;;;;;8.43;4.15;;;;;;;4.58;37.44;99525.77;1626808;87;21151;-68
2021/03/23 11:01:18;;;;;;;3.65;1.40;;;;;;;5.06;36.31;99535.93;1615395;87;21289;-67
2021/03/23 11:03:47;;;;;;;2.72;1.40;;;;;;;5.32;36.60;99531.40;1615764;88;21174;-69
2021/03/23 11:06:31;;;;;;;7.08;1.52;;;;;;;5.28;36.42;99531.52;1629072;87;22292;-69
2021/03/23 11:09:02;;;;;;;7.75;3.72;;;;;;;5.37;36.40;99539.97;1627332;82;21265;-71
2021/03/23 11:11:31;;;;;;;15.43;5.35;;;;;;;5.41;39.94;99541.61;1677720;84;21183;-73
2021/03/23 11:13:59;;;;;;;10.45;4.17;;;;;;;5.41;40.18;99545.98;1620500;87;21198;-74
2021/03/23 11:16:31;;;;;;;19.23;12.53;;;;;;;5.38;39.84;99546.04;1657608;84;21658;-73
2021/03/23 11:19:03;;;;;;;7.42;4.47;;;;;;;5.22;41.35;99559.49;1673257;85;22357;-73
2021/03/23 11:21:36;;;;;;;8.68;4.00;;;;;;;5.00;42.52;99563.50;1675738;85;21200;-73
2021/03/23 11:24:06;;;;;;;10.38;3.70;;;;;;;4.67;45.83;99577.73;1690423;81;21227;-71
2021/03/23 11:26:34;;;;;;;4.00;2.72;;;;;;;4.19;51.02;99580.01;1677659;85;21219;-70
2021/03/23 11:29:04;;;;;;;4.03;2.15;;;;;;;3.61;55.51;99584.13;1663980;85;21223;-70
2021/03/23 11:31:34;;;;;;;6.10;2.40;;;;;;;2.78;58.71;99575.88;1664577;85;21346;-70
2021/03/23 11:34:04;;;;;;;3.27;1.40;;;;;;;2.78;58.71;99575.88;1662082;85;21263;-71
2021/03/23 11:36:33;;;;;;;4.33;2.20;;;;;;;2.48;61.26;99581.05;1663059;85;21609;-70
2021/03/23 11:39:05;;;;;;;8.25;4.17;;;;;;;2.47;63.91;99578.05;1657638;80;21297;-74
2021/03/23 11:41:42;;;;;;;4.28;2.58;;;;;;;2.63;66.11;99577.41;1690781;83;21186;-74
2021/03/23 11:44:30;;;;;;;3.58;1.72;;;;;;;2.84;63.10;99558.04;1685410;85;21586;-75
2021/03/23 11:47:25;;;;;;;4.75;3.58;;;;;;;2.68;62.31;99550.45;1685254;85;21171;-74
2021/03/23 11:50:21;;;;;;;4.92;1.90;;;;;;;2.68;62.31;99550.45;1686253;83;21227;-77
2021/03/23 11:52:49;;;;;;;3.45;1.52;;;;;;;2.78;62.54;99565.92;1680553;83;21199;-78
2021/03/23 11:55:22;;;;;;;5.15;1.92;;;;;;;2.90;60.99;99547.56;1687055;80;21270;-70
2021/03/23 11:57:50;;;;;;;10.10;5.17;;;;;;;3.00;61.68;99545.22;1682682;83;21436;-69
2021/03/23 12:00:21;;;;;;;7.03;4.12;;;;;;;3.10;61.75;99553.28;1638147;85;21267;-68
2021/03/23 12:02:49;;;;;;;4.67;2.30;;;;;;;3.15;59.61;99548.00;1641144;85;21236;-68
2021/03/23 12:05:19;;;;;;;17.23;12.30;;;;;;;3.01;58.52;99537.81;1643667;85;21242;-68
2021/03/23 12:08:26;;;;;;;8.68;5.20;;;;;;;3.01;58.52;99537.81;1606119;87;21218;-68
2021/03/23 12:11:34;;;;;;;3.52;2.10;;;;;;;3.05;60.26;99544.70;1647565;79;21401;-74
2021/03/23 12:14:24;;;;;;;6.50;4.53;;;;;;;3.30;58.20;99544.31;1666491;85;21222;-73
2021/03/23 12:16:59;;;;;;;5.62;2.47;;;;;;;3.60;59.11;99536.85;1681127;85;21198;-73
2021/03/23 12:19:33;;;;;;;3.67;1.98;;;;;;;3.76;54.17;99534.38;1681481;85;21187;-73